createdAt,value
2024-01-28T00:02:09.596Z,2.32
2024-01-28T00:07:12.805Z,2.32
2024-01-28T00:12:15.802Z,2.39
2024-01-28T00:17:18.721Z,2.40
2024-01-28T00:22:22.095Z,2.53
2024-01-28T00:27:25.246Z,2.56
2024-01-28T00:32:28.519Z,2.50
2024-01-28T00:37:32.480Z,2.53
2024-01-28T00:42:35.656Z,2.49
2024-01-28T00:47:40.605Z,2.47
2024-01-28T00:52:45.392Z,2.47
2024-01-28T00:57:48.524Z,2.46
2024-01-28T01:02:53.345Z,2.51
2024-01-28T01:07:56.476Z,2.45
2024-01-28T01:12:59.499Z,2.46
2024-01-28T01:18:02.803Z,2.52
2024-01-28T01:23:06.057Z,2.55
2024-01-28T01:28:09.287Z,2.54
2024-01-28T01:33:12.737Z,2.51
2024-01-28T01:38:15.951Z,2.51
2024-01-28T01:43:18.974Z,2.40
2024-01-28T01:48:22.467Z,2.30
2024-01-28T01:53:25.583Z,2.22
2024-01-28T01:58:29.186Z,2.15
2024-01-28T02:03:32.715Z,2.10
2024-01-28T02:08:36.052Z,2.01
2024-01-28T02:13:39.284Z,1.96
2024-01-28T02:18:42.807Z,1.86
2024-01-28T02:23:46.057Z,1.77
2024-01-28T02:28:49.140Z,1.72
2024-01-28T02:33:52.223Z,1.72
2024-01-28T02:39:00.292Z,1.72
2024-01-28T02:44:03.547Z,1.67
2024-01-28T02:49:06.646Z,1.66
2024-01-28T02:54:09.806Z,1.68
2024-01-28T02:59:14.456Z,1.72
2024-01-28T03:04:17.513Z,1.78
2024-01-28T03:09:20.761Z,1.80
2024-01-28T03:14:24.062Z,1.85
2024-01-28T03:19:27.533Z,1.85
2024-01-28T03:24:30.594Z,1.90
2024-01-28T03:29:33.613Z,1.97
2024-01-28T03:34:37.686Z,2.03
2024-01-28T03:39:40.969Z,2.07
2024-01-28T03:44:44.555Z,2.13
2024-01-28T03:49:47.606Z,2.17
2024-01-28T03:54:50.604Z,2.19
2024-01-28T03:59:53.605Z,2.25
2024-01-28T04:04:56.910Z,2.30
2024-01-28T04:09:59.989Z,2.33
2024-01-28T04:15:03.058Z,2.39
2024-01-28T04:20:07.154Z,2.45
2024-01-28T04:25:10.591Z,2.48
2024-01-28T04:30:13.951Z,2.53
2024-01-28T04:35:16.934Z,2.59
2024-01-28T04:40:20.083Z,2.66
2024-01-28T04:45:23.589Z,2.68
2024-01-28T04:50:26.646Z,2.72
2024-01-28T04:55:29.745Z,2.76
2024-01-28T05:00:32.780Z,2.80
2024-01-28T05:05:35.911Z,2.80
2024-01-28T05:10:39.884Z,2.78
2024-01-28T05:15:44.347Z,2.83
2024-01-28T05:20:48.610Z,2.85
2024-01-28T05:25:52.029Z,2.87
2024-01-28T05:30:55.110Z,2.89
2024-01-28T05:35:58.953Z,2.90
2024-01-28T05:41:22.234Z,2.90
2024-01-28T05:46:25.557Z,2.94
2024-01-28T05:51:28.937Z,2.93
2024-01-28T05:56:32.149Z,2.94
2024-01-28T06:01:35.203Z,2.93
2024-01-28T06:06:38.329Z,2.93
2024-01-28T06:11:43.495Z,2.97
2024-01-28T06:16:46.538Z,2.98
2024-01-28T06:21:50.741Z,2.97
2024-01-28T06:26:55.782Z,2.95
2024-01-28T06:31:59.126Z,2.96
2024-01-28T06:37:03.067Z,3.01
2024-01-28T06:42:06.176Z,3.03
2024-01-28T06:47:09.362Z,3.02
2024-01-28T06:52:12.339Z,3.03
2024-01-28T06:57:15.590Z,3.07
2024-01-28T07:02:18.744Z,3.11
2024-01-28T07:07:21.868Z,3.14
2024-01-28T07:12:25.118Z,3.16
2024-01-28T07:17:28.572Z,3.20
2024-01-28T07:22:31.631Z,3.22
2024-01-28T07:27:34.781Z,3.20
2024-01-28T07:32:37.778Z,3.25
2024-01-28T07:37:41.033Z,3.35
2024-01-28T07:42:44.119Z,3.41
2024-01-28T07:47:47.634Z,3.44
2024-01-28T07:52:50.613Z,3.45
2024-01-28T07:57:56.333Z,3.48
2024-01-28T08:02:59.940Z,3.51
2024-01-28T08:08:03.123Z,3.58
2024-01-28T08:13:06.095Z,3.61
2024-01-28T08:18:09.111Z,3.63
2024-01-28T08:23:13.069Z,3.65
2024-01-28T08:28:16.153Z,3.75
2024-01-28T08:33:20.014Z,3.85
2024-01-28T08:38:23.197Z,3.90
2024-01-28T08:43:26.131Z,4.00
2024-01-28T08:48:29.219Z,4.09
2024-01-28T08:53:32.311Z,4.11
2024-01-28T08:58:37.011Z,4.15
2024-01-28T09:03:41.005Z,4.17
2024-01-28T09:08:44.351Z,4.20
2024-01-28T09:13:47.407Z,4.20
2024-01-28T09:18:50.407Z,4.29
2024-01-28T09:23:53.485Z,4.45
2024-01-28T09:28:56.760Z,4.63
2024-01-28T09:34:00.123Z,4.65
2024-01-28T09:39:03.498Z,4.76
2024-01-28T09:44:08.204Z,4.91
2024-01-28T09:49:13.407Z,4.97
2024-01-28T09:54:17.010Z,4.90
2024-01-28T09:59:20.030Z,4.94
2024-01-28T10:04:23.554Z,4.97
2024-01-28T10:09:27.503Z,4.98
2024-01-28T10:14:30.441Z,4.99
2024-01-28T10:19:37.053Z,5.12
2024-01-28T10:24:43.685Z,5.14
2024-01-28T10:29:48.857Z,5.20
2024-01-28T10:34:52.144Z,5.45
2024-01-28T10:39:57.824Z,5.65
2024-01-28T10:45:01.264Z,5.69
2024-01-28T10:50:11.701Z,5.76
2024-01-28T10:55:16.251Z,5.59
2024-01-28T11:00:22.179Z,5.53
2024-01-28T11:05:26.753Z,5.51
2024-01-28T11:10:30.929Z,5.49
2024-01-28T11:15:34.459Z,5.49
2024-01-28T11:20:37.808Z,5.48
2024-01-28T11:25:41.015Z,5.55
2024-01-28T11:30:47.831Z,5.56
2024-01-28T11:35:50.855Z,5.58
2024-01-28T11:40:59.221Z,5.53
2024-01-28T11:46:02.424Z,5.46
2024-01-28T11:51:06.129Z,5.41
2024-01-28T11:56:09.303Z,5.47
2024-01-28T12:01:12.357Z,5.51
2024-01-28T12:06:17.387Z,5.49
2024-01-28T12:11:26.120Z,5.51
2024-01-28T12:16:29.021Z,5.52
2024-01-28T12:21:32.103Z,5.48
2024-01-28T12:26:35.359Z,5.43
2024-01-28T12:31:38.430Z,5.39
2024-01-28T12:36:41.871Z,5.37
2024-01-28T12:41:44.968Z,5.31
2024-01-28T12:46:48.901Z,5.28
2024-01-28T12:51:52.618Z,5.25
2024-01-28T12:56:55.651Z,5.18
2024-01-28T13:01:58.684Z,5.19
2024-01-28T13:07:02.040Z,5.27
2024-01-28T13:12:05.866Z,5.30
2024-01-28T13:17:09.630Z,5.33
2024-01-28T13:22:12.680Z,5.28
2024-01-28T13:27:18.583Z,5.24
2024-01-28T13:32:21.954Z,5.19
2024-01-28T13:37:25.101Z,5.19
2024-01-28T13:42:28.209Z,5.15
2024-01-28T13:47:31.977Z,5.14
2024-01-28T13:52:36.463Z,5.08
2024-01-28T13:57:40.217Z,5.02
2024-01-28T14:02:45.057Z,4.99
2024-01-28T14:07:48.229Z,5.04
2024-01-28T14:12:51.460Z,5.03
2024-01-28T14:17:54.929Z,5.03
2024-01-28T14:22:57.970Z,4.98
2024-01-28T14:28:01.079Z,4.89
2024-01-28T14:33:04.813Z,4.83
2024-01-28T14:38:07.971Z,4.84
2024-01-28T14:43:11.055Z,4.82
2024-01-28T14:48:14.423Z,4.81
2024-01-28T14:53:18.018Z,4.81
2024-01-28T14:58:20.945Z,4.78
2024-01-28T15:03:24.053Z,4.69
2024-01-28T15:08:27.160Z,4.65
2024-01-28T15:13:30.170Z,4.62
2024-01-28T15:18:33.351Z,4.62
2024-01-28T15:23:40.167Z,4.59
2024-01-28T15:28:43.277Z,4.57
2024-01-28T15:33:46.455Z,4.58
2024-01-28T15:38:49.629Z,4.60
2024-01-28T15:43:53.037Z,4.50
2024-01-28T15:48:56.421Z,4.50
2024-01-28T15:53:59.655Z,4.44
2024-01-28T15:59:02.757Z,4.40
2024-01-28T16:04:05.951Z,4.38
2024-01-28T16:09:09.887Z,4.40
2024-01-28T16:14:12.818Z,4.41
2024-01-28T16:19:16.064Z,4.42
2024-01-28T16:24:19.541Z,4.41
2024-01-28T16:29:23.177Z,4.38
2024-01-28T16:34:26.709Z,4.39
2024-01-28T16:39:29.937Z,4.39
2024-01-28T16:44:32.980Z,4.37
2024-01-28T16:49:36.226Z,4.40
2024-01-28T16:54:39.403Z,4.41
2024-01-28T16:59:42.420Z,4.40
2024-01-28T17:04:45.442Z,4.43
2024-01-28T17:09:48.574Z,4.46
2024-01-28T17:14:51.742Z,4.48
2024-01-28T17:19:55.294Z,4.48
2024-01-28T17:24:58.688Z,4.43
2024-01-28T17:30:01.768Z,4.36
2024-01-28T17:35:06.351Z,4.33
2024-01-28T17:40:10.483Z,4.34
2024-01-28T17:45:13.887Z,4.38
2024-01-28T17:50:17.053Z,4.34
2024-01-28T17:55:20.498Z,4.31
2024-01-28T18:00:23.688Z,4.27
2024-01-28T18:05:26.672Z,4.28
2024-01-28T18:10:30.651Z,4.34
2024-01-28T18:15:34.684Z,4.29
2024-01-28T18:20:37.688Z,4.22
2024-01-28T18:25:41.132Z,4.21
2024-01-28T18:30:44.272Z,4.30
2024-01-28T18:35:52.350Z,4.32
2024-01-28T18:40:55.749Z,4.32
2024-01-28T18:45:58.977Z,4.32
2024-01-28T18:51:02.219Z,4.27
2024-01-28T18:56:06.536Z,4.28
2024-01-28T19:01:11.377Z,4.26
2024-01-28T19:06:15.714Z,4.26
2024-01-28T19:11:19.628Z,4.23
2024-01-28T19:16:22.724Z,4.23
2024-01-28T19:21:26.006Z,4.22
2024-01-28T19:26:30.175Z,4.21
2024-01-28T19:31:33.750Z,4.29
2024-01-28T19:36:37.234Z,4.23
2024-01-28T19:41:40.354Z,4.19
2024-01-28T19:46:43.410Z,4.14
2024-01-28T19:51:46.471Z,4.18
2024-01-28T19:56:49.794Z,4.19
2024-01-28T20:01:54.433Z,4.17
2024-01-28T20:06:59.462Z,4.17
2024-01-28T20:12:03.011Z,4.17
2024-01-28T20:17:08.182Z,4.20
2024-01-28T20:22:12.447Z,4.20
2024-01-28T20:27:15.845Z,4.22
2024-01-28T20:32:18.913Z,4.22
2024-01-28T20:37:25.171Z,4.18
2024-01-28T20:42:29.718Z,4.16
2024-01-28T20:47:33.143Z,4.19
2024-01-28T20:52:36.293Z,4.19
2024-01-28T20:57:40.187Z,4.15
2024-01-28T21:02:43.486Z,4.22
2024-01-28T21:07:46.613Z,4.21
2024-01-28T21:12:49.938Z,4.15
2024-01-28T21:17:55.508Z,4.11
2024-01-28T21:22:59.893Z,4.09
2024-01-28T21:28:03.104Z,4.10
2024-01-28T21:33:06.652Z,4.10
2024-01-28T21:38:09.989Z,4.10
2024-01-28T21:43:15.516Z,4.12
2024-01-28T21:48:18.980Z,4.19
2024-01-28T21:53:22.022Z,4.16
2024-01-28T21:58:25.108Z,4.11
2024-01-28T22:03:29.098Z,4.10
2024-01-28T22:08:32.302Z,4.11
2024-01-28T22:13:35.380Z,4.09
2024-01-28T22:18:39.250Z,4.10
2024-01-28T22:23:42.520Z,4.12
2024-01-28T22:28:47.112Z,4.16
2024-01-28T22:33:50.339Z,4.13
2024-01-28T22:38:53.621Z,4.15
2024-01-28T22:43:56.670Z,4.20
2024-01-28T22:48:59.900Z,4.13
2024-01-28T22:54:04.571Z,4.10
2024-01-28T22:59:07.660Z,4.08
2024-01-28T23:04:10.778Z,4.06
2024-01-28T23:09:14.664Z,4.02
2024-01-28T23:14:17.684Z,3.98
2024-01-28T23:19:20.756Z,3.98
2024-01-28T23:24:23.852Z,3.96
2024-01-28T23:29:27.428Z,3.95
2024-01-28T23:34:30.806Z,3.92
2024-01-28T23:39:34.410Z,3.90
2024-01-28T23:44:38.065Z,3.89
2024-01-28T23:49:42.406Z,3.89
2024-01-28T23:54:45.660Z,3.88
2024-01-28T23:59:48.774Z,3.86
